Time;durP1;ratioP1;P1;durP2;ratioP2;P2;SDS_P1;SDS_P2;PMS_P1;PMS_P2;Temp;Humidity;BMP_temperature;BMP_pressure;BME280_temperature;BME280_humidity;BME280_pressure;Samples;Min_cycle;Max_cycle;Signal;HPM_P1;HPM_P2
2023/03/24 00:02:06;;;;;;;10.02;5.30;;;11.40;99.90;;;;;;5134020;27;20042;-79
2023/03/24 00:04:32;;;;;;;12.20;5.00;;;11.40;99.90;;;;;;5094566;28;20050;-79
2023/03/24 00:07:00;;;;;;;8.98;4.43;;;11.40;99.90;;;;;;5114289;27;20043;-79
2023/03/24 00:09:27;;;;;;;11.40;4.93;;;11.40;99.90;;;;;;5131725;27;20466;-79
2023/03/24 00:11:53;;;;;;;11.02;4.82;;;11.40;99.90;;;;;;5111808;28;20032;-80
2023/03/24 00:14:18;;;;;;;8.80;4.18;;;11.40;99.90;;;;;;5107015;27;20761;-80
2023/03/24 00:16:44;;;;;;;9.68;4.63;;;11.30;99.90;;;;;;5112357;27;20480;-79
2023/03/24 00:19:12;;;;;;;14.32;5.00;;;11.30;99.90;;;;;;5115207;27;20038;-78
2023/03/24 00:21:38;;;;;;;10.70;4.70;;;11.30;99.90;;;;;;5095689;28;20040;-79
2023/03/24 00:24:06;;;;;;;9.77;4.30;;;11.30;99.90;;;;;;5108718;27;20487;-80
2023/03/24 00:26:33;;;;;;;8.98;4.43;;;11.30;99.90;;;;;;5105648;28;20556;-79
2023/03/24 00:29:00;;;;;;;9.73;4.82;;;11.30;99.90;;;;;;5110560;27;20036;-80
2023/03/24 00:31:26;;;;;;;9.35;4.80;;;11.30;99.90;;;;;;5108232;27;20039;-80
2023/03/24 00:33:53;;;;;;;10.65;4.75;;;11.30;99.90;;;;;;5113776;28;20493;-80
2023/03/24 00:36:21;;;;;;;9.30;4.47;;;11.30;99.90;;;;;;5122704;27;20070;-80
2023/03/24 00:38:48;;;;;;;8.30;4.38;;;11.30;99.90;;;;;;5091296;27;20036;-79
2023/03/24 00:41:18;;;;;;;10.13;4.88;;;11.30;99.90;;;;;;5117397;27;20035;-79
2023/03/24 00:43:44;;;;;;;7.68;4.38;;;11.30;99.90;;;;;;5090628;28;20042;-80
2023/03/24 00:46:12;;;;;;;9.45;4.80;;;11.30;99.90;;;;;;5110158;27;20039;-80
2023/03/24 00:48:40;;;;;;;11.25;4.80;;;11.30;99.90;;;;;;5114611;27;20106;-79
2023/03/24 00:51:06;;;;;;;10.07;5.05;;;11.30;99.90;;;;;;5115213;27;20065;-80
2023/03/24 00:53:33;;;;;;;8.88;4.85;;;11.30;99.90;;;;;;5110907;27;20035;-80
2023/03/24 00:55:59;;;;;;;8.70;4.45;;;11.30;99.90;;;;;;5112940;27;20075;-80
2023/03/24 00:58:28;;;;;;;7.13;4.00;;;11.30;99.90;;;;;;5113631;27;20124;-80
2023/03/24 01:00:55;;;;;;;7.80;3.97;;;11.30;99.90;;;;;;5117961;27;20126;-79
2023/03/24 01:03:26;;;;;;;7.80;4.28;;;11.30;99.90;;;;;;5113465;27;20127;-80
2023/03/24 01:05:56;;;;;;;9.20;4.65;;;11.20;99.90;;;;;;5096429;28;20035;-80
2023/03/24 01:08:24;;;;;;;7.88;4.35;;;11.20;99.90;;;;;;5108782;27;20057;-80
2023/03/24 01:10:51;;;;;;;8.50;4.20;;;11.30;99.90;;;;;;5104999;28;20477;-79
2023/03/24 01:13:23;;;;;;;7.47;4.10;;;11.20;99.90;;;;;;5091956;28;20036;-80
2023/03/24 01:15:50;;;;;;;9.40;4.50;;;11.20;99.90;;;;;;5106608;27;20119;-80
2023/03/24 01:18:16;;;;;;;8.50;4.10;;;11.20;99.90;;;;;;5091966;28;20422;-80
2023/03/24 01:20:44;;;;;;;8.00;3.90;;;11.20;99.90;;;;;;5111644;27;20028;-80
2023/03/24 01:23:13;;;;;;;10.23;4.70;;;11.20;99.90;;;;;;5112625;28;20066;-79
2023/03/24 01:25:41;;;;;;;7.70;4.05;;;11.20;99.90;;;;;;5112220;27;20113;-79
2023/03/24 01:28:07;;;;;;;6.78;3.92;;;11.20;99.90;;;;;;5105556;28;20403;-80
2023/03/24 01:30:33;;;;;;;9.20;4.70;;;11.20;99.90;;;;;;5106973;27;20131;-78
2023/03/24 01:32:58;;;;;;;10.02;4.13;;;11.30;99.90;;;;;;5110839;28;20110;-79
2023/03/24 01:35:25;;;;;;;8.25;4.25;;;11.20;99.90;;;;;;5109342;27;20124;-80
2023/03/24 01:37:51;;;;;;;7.57;3.75;;;11.20;99.90;;;;;;5103820;27;20036;-80
2023/03/24 01:40:21;;;;;;;7.07;4.03;;;11.20;99.90;;;;;;5135606;27;20075;-79
2023/03/24 01:42:46;;;;;;;8.80;3.90;;;11.20;99.90;;;;;;5104398;28;20057;-79
2023/03/24 01:45:37;;;;;;;7.65;4.10;;;11.20;99.90;;;;;;5115495;27;20047;-80
2023/03/24 01:48:05;;;;;;;6.20;3.72;;;11.20;99.90;;;;;;5107099;27;20035;-80
2023/03/24 01:50:31;;;;;;;8.65;4.38;;;11.20;99.90;;;;;;5115600;27;20131;-80
2023/03/24 01:52:57;;;;;;;7.82;4.25;;;11.20;99.90;;;;;;5111923;27;20461;-80
2023/03/24 01:55:23;;;;;;;8.30;4.05;;;11.20;99.90;;;;;;5098569;28;20380;-79
2023/03/24 01:57:52;;;;;;;6.15;3.53;;;11.20;99.90;;;;;;5111259;28;20061;-79
2023/03/24 02:00:20;;;;;;;5.35;3.58;;;11.20;99.90;;;;;;5112444;27;20074;-80
2023/03/24 02:02:53;;;;;;;7.95;4.00;;;11.20;99.90;;;;;;5110808;27;20504;-80
2023/03/24 02:05:21;;;;;;;5.32;3.50;;;11.30;99.90;;;;;;5111030;27;20039;-80
2023/03/24 02:08:02;;;;;;;7.97;4.03;;;11.30;99.90;;;;;;5103514;28;20219;-80
2023/03/24 02:10:31;;;;;;;7.60;3.80;;;11.30;99.90;;;;;;5107892;27;20043;-80
2023/03/24 02:12:57;;;;;;;6.85;3.25;;;11.30;99.90;;;;;;5090507;28;20059;-79
2023/03/24 02:15:24;;;;;;;6.95;3.95;;;11.30;99.90;;;;;;5117090;27;20035;-80
2023/03/24 02:18:01;;;;;;;8.45;3.90;;;11.30;99.90;;;;;;5094240;28;20082;-80
2023/03/24 02:20:56;;;;;;;7.78;4.35;;;11.30;99.90;;;;;;5086434;28;20499;-80
2023/03/24 02:24:06;;;;;;;8.65;4.10;;;11.30;99.90;;;;;;5102877;28;20043;-81
2023/03/24 02:26:47;;;;;;;5.80;3.80;;;11.30;99.90;;;;;;5106260;27;20088;-80
2023/03/24 02:29:53;;;;;;;5.93;3.60;;;11.30;99.90;;;;;;5113070;27;20053;-80
2023/03/24 02:32:49;;;;;;;6.20;4.10;;;11.30;99.90;;;;;;5107339;27;20119;-80
2023/03/24 02:35:33;;;;;;;5.88;3.70;;;11.30;99.90;;;;;;5106908;27;20044;-80
2023/03/24 02:38:16;;;;;;;6.30;4.30;;;11.30;99.90;;;;;;5105624;27;20032;-80
2023/03/24 02:41:09;;;;;;;5.60;3.80;;;11.30;99.90;;;;;;5107568;28;20061;-80
2023/03/24 02:44:05;;;;;;;5.72;3.90;;;11.30;99.90;;;;;;5100950;27;20051;-81
2023/03/24 02:46:48;;;;;;;7.22;3.95;;;11.30;99.90;;;;;;5104579;28;20047;-80
2023/03/24 02:49:33;;;;;;;7.35;4.50;;;11.40;99.90;;;;;;5112653;27;20086;-80
2023/03/24 02:52:05;;;;;;;6.15;3.92;;;11.40;99.90;;;;;;5104318;28;20051;-81
2023/03/24 02:54:47;;;;;;;5.60;3.67;;;11.40;99.90;;;;;;5111022;27;20062;-79
2023/03/24 02:57:57;;;;;;;6.80;4.15;;;11.40;99.90;;;;;;5093677;28;20043;-79
2023/03/24 03:00:40;;;;;;;6.75;3.88;;;11.40;99.90;;;;;;5094247;28;20097;-78
2023/03/24 03:03:17;;;;;;;5.80;3.63;;;11.40;99.90;;;;;;5108129;28;20070;-78
2023/03/24 03:06:18;;;;;;;6.43;4.10;;;11.40;99.90;;;;;;5123426;27;20105;-77
2023/03/24 03:08:46;;;;;;;7.15;3.58;;;11.50;99.90;;;;;;5108769;28;20126;-77
2023/03/24 03:11:15;;;;;;;4.97;3.70;;;11.50;99.90;;;;;;5109421;28;20402;-77
2023/03/24 03:13:48;;;;;;;5.28;3.70;;;11.50;99.90;;;;;;5106850;28;20039;-78
2023/03/24 03:16:24;;;;;;;5.28;3.95;;;11.50;99.90;;;;;;5109661;28;20032;-77
2023/03/24 03:19:02;;;;;;;5.75;3.60;;;11.50;99.90;;;;;;5116195;27;20036;-78
2023/03/24 03:21:33;;;;;;;6.43;3.67;;;11.60;99.90;;;;;;5096684;27;20043;-77
2023/03/24 03:24:06;;;;;;;5.88;3.40;;;11.60;99.90;;;;;;5119331;27;20034;-78
2023/03/24 03:26:33;;;;;;;6.63;3.57;;;11.60;99.90;;;;;;5091205;28;20040;-78
2023/03/24 03:29:04;;;;;;;6.95;3.67;;;11.60;99.90;;;;;;5117760;27;20376;-78
2023/03/24 03:31:43;;;;;;;5.93;3.40;;;11.60;99.90;;;;;;5119684;27;20053;-79
2023/03/24 03:34:27;;;;;;;7.22;3.30;;;11.60;99.90;;;;;;5122793;27;20057;-78
2023/03/24 03:37:05;;;;;;;3.72;2.55;;;11.60;99.90;;;;;;5109599;27;20062;-79
2023/03/24 03:39:35;;;;;;;4.40;2.50;;;11.50;99.90;;;;;;5113636;27;20135;-78
2023/03/24 03:42:02;;;;;;;3.72;2.53;;;11.40;99.90;;;;;;5110786;28;20104;-78
2023/03/24 03:44:28;;;;;;;4.68;2.92;;;11.40;99.90;;;;;;5109532;27;20042;-79
2023/03/24 03:46:54;;;;;;;5.35;2.60;;;11.30;99.90;;;;;;5108429;27;20111;-79
2023/03/24 03:49:20;;;;;;;7.22;2.70;;;11.30;99.90;;;;;;5110950;27;20505;-78
2023/03/24 03:51:46;;;;;;;5.47;2.78;;;11.20;99.90;;;;;;5146873;27;20047;-79
2023/03/24 03:54:14;;;;;;;4.35;2.63;;;11.10;99.90;;;;;;5119776;27;20123;-79
2023/03/24 03:56:41;;;;;;;5.78;2.63;;;11.10;99.90;;;;;;5120073;27;20039;-78
2023/03/24 03:59:09;;;;;;;7.72;2.75;;;11.00;99.90;;;;;;5115340;27;20394;-79
2023/03/24 04:01:35;;;;;;;7.43;2.97;;;10.90;99.90;;;;;;5114966;28;20046;-79
2023/03/24 04:04:09;;;;;;;6.47;2.65;;;10.90;99.90;;;;;;5106914;28;20431;-79
2023/03/24 04:06:43;;;;;;;7.07;2.33;;;10.80;99.90;;;;;;5097297;28;20051;-79
2023/03/24 04:09:30;;;;;;;6.57;2.55;;;10.80;99.90;;;;;;5109895;28;20036;-79
2023/03/24 04:12:07;;;;;;;7.82;2.13;;;10.80;99.90;;;;;;5119314;27;20039;-79
2023/03/24 04:14:42;;;;;;;3.80;1.70;;;10.70;99.90;;;;;;5143582;27;20118;-79
2023/03/24 04:17:34;;;;;;;6.18;1.60;;;10.70;99.90;;;;;;5115540;27;20059;-79
2023/03/24 04:20:45;;;;;;;8.18;1.98;;;10.60;99.90;;;;;;5111976;27;20058;-79
2023/03/24 04:23:17;;;;;;;7.10;1.83;;;10.60;99.90;;;;;;5103347;27;20056;-79
2023/03/24 04:26:10;;;;;;;6.50;1.48;;;10.50;99.90;;;;;;5115628;27;20043;-79
2023/03/24 04:28:56;;;;;;;6.67;1.83;;;10.40;99.90;;;;;;5115175;27;20056;-79
2023/03/24 04:31:36;;;;;;;9.45;1.77;;;10.40;99.90;;;;;;5114114;27;20360;-79
2023/03/24 04:34:14;;;;;;;5.78;1.38;;;10.30;99.90;;;;;;5107770;27;20032;-79
2023/03/24 04:37:02;;;;;;;9.40;1.52;;;10.30;99.90;;;;;;5116164;27;20043;-78
2023/03/24 04:39:33;;;;;;;7.35;1.60;;;10.20;99.90;;;;;;5089255;28;20035;-78
2023/03/24 04:42:03;;;;;;;6.35;1.50;;;10.20;99.90;;;;;;5109232;27;20085;-79
2023/03/24 04:44:31;;;;;;;8.23;1.50;;;10.10;99.90;;;;;;5109641;27;20055;-79
2023/03/24 04:46:59;;;;;;;8.30;1.70;;;10.00;99.90;;;;;;5115462;27;20036;-79
2023/03/24 04:49:26;;;;;;;7.72;1.50;;;10.00;99.90;;;;;;5094993;27;20043;-79
2023/03/24 04:51:52;;;;;;;9.02;2.13;;;10.00;99.90;;;;;;5113471;28;20122;-79
2023/03/24 04:54:19;;;;;;;10.05;2.17;;;9.90;99.90;;;;;;5113510;27;20398;-79
2023/03/24 04:56:47;;;;;;;7.43;1.80;;;9.90;99.90;;;;;;5107732;27;20441;-80
2023/03/24 04:59:14;;;;;;;7.45;1.65;;;9.80;99.90;;;;;;5120961;27;20043;-80
2023/03/24 05:01:48;;;;;;;8.60;1.70;;;9.70;99.90;;;;;;5110673;27;20118;-80
2023/03/24 05:04:24;;;;;;;11.73;2.40;;;9.70;99.90;;;;;;5095930;28;20028;-80
2023/03/24 05:06:50;;;;;;;9.02;1.88;;;9.70;99.90;;;;;;5108371;27;20039;-79
2023/03/24 05:09:20;;;;;;;6.68;1.58;;;9.60;99.90;;;;;;5114329;27;20032;-80
2023/03/24 05:11:46;;;;;;;8.60;1.85;;;9.60;99.90;;;;;;5111628;27;20096;-80
2023/03/24 05:14:12;;;;;;;8.57;2.25;;;9.60;99.90;;;;;;5111246;27;20027;-79
2023/03/24 05:16:38;;;;;;;7.45;2.70;;;9.60;99.90;;;;;;5116557;27;20118;-80
2023/03/24 05:19:04;;;;;;;6.57;1.90;;;9.60;99.90;;;;;;5097563;28;20074;-80
2023/03/24 05:21:29;;;;;;;8.85;2.30;;;9.60;99.90;;;;;;5096857;27;20040;-80
2023/03/24 05:23:55;;;;;;;11.93;2.47;;;9.60;99.90;;;;;;5110214;28;20052;-79
2023/03/24 05:26:21;;;;;;;10.05;2.15;;;9.60;99.90;;;;;;5101256;27;20043;-80
2023/03/24 05:28:46;;;;;;;9.52;2.50;;;9.60;99.90;;;;;;5116677;27;20024;-79
2023/03/24 05:31:12;;;;;;;11.20;2.63;;;9.70;99.90;;;;;;5109208;28;20069;-79
2023/03/24 05:33:37;;;;;;;8.57;2.97;;;9.70;99.90;;;;;;5106200;28;20043;-80
2023/03/24 05:36:03;;;;;;;7.55;2.30;;;9.70;99.90;;;;;;5115067;27;20035;-79
2023/03/24 05:38:29;;;;;;;11.35;2.88;;;9.70;99.90;;;;;;5116779;27;20453;-79
2023/03/24 05:40:59;;;;;;;7.97;2.67;;;9.60;99.90;;;;;;5107320;28;20039;-80
2023/03/24 05:43:25;;;;;;;11.40;3.25;;;9.70;99.90;;;;;;5105844;28;20218;-80
2023/03/24 05:45:51;;;;;;;13.32;3.20;;;9.70;99.90;;;;;;5111882;27;20067;-79
2023/03/24 05:48:16;;;;;;;13.40;2.90;;;9.70;99.90;;;;;;5111057;28;20075;-79
2023/03/24 05:50:42;;;;;;;11.45;2.70;;;9.60;99.90;;;;;;5109577;28;20040;-80
2023/03/24 05:53:07;;;;;;;12.88;2.72;;;9.60;99.90;;;;;;5137467;27;20036;-79
2023/03/24 05:55:34;;;;;;;12.05;3.05;;;9.60;99.90;;;;;;5116554;27;20032;-80
2023/03/24 05:58:00;;;;;;;11.15;3.08;;;9.60;99.90;;;;;;5113138;27;20104;-79
2023/03/24 06:00:30;;;;;;;11.50;2.30;;;9.60;99.90;;;;;;5106645;28;20097;-82
2023/03/24 06:02:56;;;;;;;9.30;2.55;;;9.70;99.90;;;;;;5094345;28;20032;-82
2023/03/24 06:05:22;;;;;;;9.40;2.58;;;9.60;99.90;;;;;;5094179;27;20071;-82
2023/03/24 06:07:48;;;;;;;9.05;2.28;;;9.60;99.90;;;;;;5110370;27;20070;-82
2023/03/24 06:10:17;;;;;;;10.82;2.67;;;9.60;99.90;;;;;;5113074;27;20044;-81
2023/03/24 06:12:43;;;;;;;11.38;2.65;;;9.60;99.90;;;;;;5109269;27;20035;-82
2023/03/24 06:15:10;;;;;;;10.65;2.42;;;9.60;99.90;;;;;;5103063;28;20039;-82
2023/03/24 06:17:41;;;;;;;13.30;2.67;;;9.60;99.90;;;;;;5104894;28;20071;-82
2023/03/24 06:20:13;;;;;;;11.93;2.45;;;9.60;99.90;;;;;;5110835;28;20043;-82
2023/03/24 06:22:39;;;;;;;10.40;2.20;;;9.60;99.90;;;;;;5111320;28;20039;-81
2023/03/24 06:25:05;;;;;;;11.02;2.47;;;9.60;99.90;;;;;;5126929;27;20036;-82
2023/03/24 06:27:31;;;;;;;14.85;2.72;;;9.60;99.90;;;;;;5103370;28;20052;-82
2023/03/24 06:29:57;;;;;;;9.85;2.08;;;9.60;99.90;;;;;;5144053;27;20036;-82
2023/03/24 06:32:23;;;;;;;13.77;2.40;;;9.60;99.90;;;;;;5085955;28;20046;-82
2023/03/24 06:34:48;;;;;;;9.27;2.20;;;9.60;99.90;;;;;;5109545;28;20035;-82
2023/03/24 06:37:14;;;;;;;12.45;2.60;;;9.60;99.90;;;;;;5104078;28;20071;-82
2023/03/24 06:39:40;;;;;;;15.20;2.50;;;9.60;99.90;;;;;;5107426;28;20035;-82
2023/03/24 06:42:06;;;;;;;10.88;2.92;;;9.60;99.90;;;;;;5109318;28;20042;-82
2023/03/24 06:44:31;;;;;;;10.82;2.88;;;9.60;99.90;;;;;;5102628;28;20375;-82
2023/03/24 06:46:57;;;;;;;11.82;3.05;;;9.60;99.90;;;;;;5105277;28;20043;-83
2023/03/24 06:49:23;;;;;;;15.13;2.70;;;9.60;99.90;;;;;;5104962;28;20040;-84
2023/03/24 06:51:48;;;;;;;10.32;2.33;;;9.70;99.90;;;;;;5087565;28;20127;-83
2023/03/24 06:54:14;;;;;;;13.02;2.47;;;9.60;99.90;;;;;;5104750;28;20123;-83
2023/03/24 06:56:40;;;;;;;15.15;2.50;;;9.70;99.90;;;;;;5109224;28;20048;-84
2023/03/24 06:59:06;;;;;;;12.57;2.67;;;9.70;99.90;;;;;;5092107;28;20110;-84
2023/03/24 07:01:33;;;;;;;12.43;2.30;;;9.70;99.90;;;;;;5089951;28;20040;-83
2023/03/24 07:03:59;;;;;;;15.18;2.85;;;9.70;99.90;;;;;;5103854;28;20039;-83
2023/03/24 07:06:24;;;;;;;15.95;2.80;;;9.80;99.90;;;;;;5133455;27;20032;-82
2023/03/24 07:08:51;;;;;;;11.57;2.63;;;9.80;99.90;;;;;;5132444;27;20057;-83
2023/03/24 07:11:16;;;;;;;13.80;2.67;;;9.80;99.90;;;;;;5107161;28;20100;-83
2023/03/24 07:13:42;;;;;;;13.00;2.72;;;9.90;99.90;;;;;;5106400;27;20043;-83
2023/03/24 07:16:07;;;;;;;8.70;2.55;;;9.90;99.90;;;;;;5130222;27;20100;-83
2023/03/24 07:18:33;;;;;;;12.75;2.97;;;9.90;99.90;;;;;;5107749;28;20043;-83
2023/03/24 07:20:59;;;;;;;17.52;3.22;;;9.90;99.90;;;;;;5142895;27;20036;-83
2023/03/24 07:23:26;;;;;;;10.95;2.30;;;9.90;99.90;;;;;;5105786;28;20085;-83
2023/03/24 07:25:52;;;;;;;12.80;2.15;;;9.90;99.90;;;;;;5103198;28;20044;-83
2023/03/24 07:28:18;;;;;;;13.93;2.63;;;9.90;99.90;;;;;;5137844;27;20044;-83
2023/03/24 07:30:44;;;;;;;18.52;3.75;;;9.90;99.90;;;;;;5093378;28;20410;-84
2023/03/24 07:33:11;;;;;;;12.98;3.42;;;10.00;99.90;;;;;;5116704;28;20048;-83
2023/03/24 07:35:37;;;;;;;12.85;2.58;;;10.00;99.90;;;;;;5105017;28;20040;-84
2023/03/24 07:38:03;;;;;;;15.93;2.92;;;10.00;99.90;;;;;;5112760;28;20174;-83
2023/03/24 07:40:29;;;;;;;16.77;2.90;;;10.00;99.90;;;;;;5101653;28;20130;-83
2023/03/24 07:42:58;;;;;;;19.52;3.13;;;10.10;99.90;;;;;;5109000;28;20078;-83
2023/03/24 07:45:24;;;;;;;15.85;3.00;;;10.10;99.90;;;;;;5104035;28;20436;-83
2023/03/24 07:47:50;;;;;;;16.85;2.80;;;10.10;99.90;;;;;;5085558;28;20044;-84
2023/03/24 07:50:16;;;;;;;17.92;3.65;;;10.10;99.90;;;;;;5107537;28;20105;-84
2023/03/24 07:52:47;;;;;;;17.48;2.95;;;10.20;99.90;;;;;;5088932;28;20067;-84
2023/03/24 07:55:14;;;;;;;19.38;3.25;;;10.20;99.90;;;;;;5106311;28;20035;-84
2023/03/24 07:57:41;;;;;;;15.48;2.85;;;10.20;99.90;;;;;;5101864;28;20044;-84
2023/03/24 08:00:16;;;;;;;16.42;2.72;;;10.20;99.90;;;;;;5109594;28;20070;-84
2023/03/24 08:02:43;;;;;;;22.15;3.22;;;10.10;99.90;;;;;;5102795;28;20119;-84
2023/03/24 08:05:09;;;;;;;17.70;2.90;;;10.20;99.90;;;;;;5091241;28;20071;-84
2023/03/24 08:07:35;;;;;;;16.60;3.13;;;10.20;99.90;;;;;;5106179;28;20067;-84
2023/03/24 08:10:02;;;;;;;15.13;2.70;;;10.20;99.90;;;;;;5108973;28;20035;-84
2023/03/24 08:12:27;;;;;;;18.92;3.30;;;10.20;99.90;;;;;;5111116;28;20435;-84
2023/03/24 08:14:53;;;;;;;18.23;2.80;;;10.20;99.90;;;;;;5127489;27;20032;-83
2023/03/24 08:17:18;;;;;;;17.52;3.45;;;10.30;99.90;;;;;;5108949;27;20036;-84
2023/03/24 08:19:44;;;;;;;19.48;3.28;;;10.40;99.90;;;;;;5085554;28;20039;-84
2023/03/24 08:22:10;;;;;;;17.02;3.00;;;10.40;99.90;;;;;;5089893;28;20043;-84
2023/03/24 08:24:35;;;;;;;16.90;3.15;;;10.50;99.90;;;;;;5114290;27;20047;-84
2023/03/24 08:27:05;;;;;;;17.65;2.90;;;10.60;99.90;;;;;;5110817;27;20043;-84
2023/03/24 08:29:33;;;;;;;17.27;3.75;;;10.90;99.90;;;;;;5094611;28;20085;-85
2023/03/24 08:31:59;;;;;;;20.80;3.47;;;10.80;99.90;;;;;;5113103;28;20044;-84
2023/03/24 08:34:25;;;;;;;10.38;2.95;;;10.80;99.90;;;;;;5106751;28;20028;-84
2023/03/24 08:36:50;;;;;;;16.33;3.38;;;10.80;99.90;;;;;;5113030;28;20096;-84
2023/03/24 08:39:16;;;;;;;20.35;3.60;;;10.90;99.90;;;;;;5110336;28;20043;-85
2023/03/24 08:41:42;;;;;;;12.40;2.97;;;10.90;99.90;;;;;;5113269;28;20035;-84
2023/03/24 08:44:09;;;;;;;17.63;3.30;;;11.00;99.90;;;;;;5097268;27;20045;-84
2023/03/24 08:46:34;;;;;;;16.17;2.83;;;11.20;99.90;;;;;;5115284;27;20036;-83
2023/03/24 08:49:01;;;;;;;21.52;3.45;;;11.20;99.90;;;;;;5112674;28;20065;-84
2023/03/24 08:51:26;;;;;;;19.08;3.75;;;11.30;99.90;;;;;;5089628;28;20101;-85
2023/03/24 08:53:52;;;;;;;13.40;3.20;;;11.40;99.90;;;;;;5112494;28;20040;-83
2023/03/24 08:56:18;;;;;;;14.40;3.03;;;11.50;99.90;;;;;;5093636;28;20031;-83
2023/03/24 08:58:47;;;;;;;22.75;3.42;;;11.80;99.90;;;;;;5090642;28;20651;-84
2023/03/24 09:01:13;;;;;;;14.65;3.00;;;11.90;99.90;;;;;;5095099;28;20032;-84
2023/03/24 09:03:40;;;;;;;17.20;3.78;;;12.00;99.90;;;;;;5105560;28;20042;-84
2023/03/24 09:06:06;;;;;;;17.70;3.80;;;12.00;99.90;;;;;;5110374;28;20057;-84
2023/03/24 09:08:31;;;;;;;18.08;3.90;;;12.10;99.90;;;;;;5096203;28;20065;-84
2023/03/24 09:10:57;;;;;;;21.23;4.07;;;12.10;99.90;;;;;;5108957;28;20035;-85
2023/03/24 09:13:23;;;;;;;18.08;3.63;;;11.90;99.90;;;;;;5111162;28;20040;-85
2023/03/24 09:15:57;;;;;;;12.55;2.55;;;11.70;99.90;;;;;;5095263;28;20107;-84
2023/03/24 09:18:23;;;;;;;18.67;3.03;;;11.60;99.90;;;;;;5113472;28;20070;-83
2023/03/24 09:20:49;;;;;;;14.35;3.20;;;11.50;99.90;;;;;;5106733;28;20032;-84
2023/03/24 09:23:15;;;;;;;14.70;3.13;;;11.40;99.90;;;;;;5106528;28;20078;-84
2023/03/24 09:25:41;;;;;;;15.77;2.97;;;11.20;99.90;;;;;;5105417;28;20043;-84
2023/03/24 09:28:07;;;;;;;13.15;2.67;;;11.00;99.90;;;;;;5087440;28;20039;-85
2023/03/24 09:30:33;;;;;;;14.27;3.58;;;10.90;99.90;;;;;;5106591;28;20414;-86
2023/03/24 09:32:59;;;;;;;13.43;2.92;;;10.70;99.90;;;;;;5107242;28;20035;-83
2023/03/24 09:35:31;;;;;;;12.60;2.70;;;10.60;99.90;;;;;;5090894;28;20122;-84
2023/03/24 09:37:56;;;;;;;12.95;2.63;;;10.50;99.90;;;;;;5106845;28;20118;-84
2023/03/24 09:40:27;;;;;;;13.60;3.13;;;10.50;99.90;;;;;;5091850;28;20126;-84
2023/03/24 09:43:05;;;;;;;20.15;2.75;;;10.50;99.90;;;;;;5097291;28;20050;-84
2023/03/24 09:45:36;;;;;;;16.95;2.83;;;10.70;99.90;;;;;;5100325;28;20046;-84
2023/03/24 09:48:38;;;;;;;15.25;2.78;;;11.10;99.90;;;;;;5106191;28;20031;-84
2023/03/24 09:51:12;;;;;;;16.25;3.00;;;11.60;99.90;;;;;;5108249;28;20099;-84
2023/03/24 09:54:02;;;;;;;12.88;3.00;;;11.90;99.90;;;;;;5103040;28;20047;-83
2023/03/24 09:56:29;;;;;;;15.10;3.30;;;12.20;99.90;;;;;;5094597;28;20035;-84
2023/03/24 09:59:03;;;;;;;15.13;2.70;;;12.40;99.90;;;;;;5108364;28;20135;-84
2023/03/24 10:01:29;;;;;;;12.98;2.30;;;12.60;99.90;;;;;;5103134;28;20109;-84
2023/03/24 10:03:59;;;;;;;14.80;3.15;;;12.70;99.90;;;;;;5089847;28;20031;-84
2023/03/24 10:06:35;;;;;;;14.85;3.22;;;12.90;99.90;;;;;;5111166;28;20118;-85
2023/03/24 10:09:03;;;;;;;16.73;3.17;;;13.10;99.90;;;;;;5109205;28;20036;-85
2023/03/24 10:11:46;;;;;;;13.68;2.55;;;13.20;99.90;;;;;;5144668;27;20506;-84
2023/03/24 10:14:56;;;;;;;14.77;3.08;;;13.30;99.90;;;;;;5147238;27;20413;-81
2023/03/24 10:17:40;;;;;;;18.17;3.03;;;13.30;99.90;;;;;;5095645;27;20115;-83
2023/03/24 10:20:35;;;;;;;16.40;3.47;;;13.40;99.90;;;;;;5095092;28;20043;-81
2023/03/24 10:23:32;;;;;;;14.98;2.80;;;13.60;99.90;;;;;;5106341;28;20131;-82
2023/03/24 10:26:25;;;;;;;14.20;2.75;;;13.60;99.90;;;;;;5099612;28;20047;-82
2023/03/24 10:29:03;;;;;;;12.95;3.03;;;13.80;99.90;;;;;;5098556;28;20036;-82
2023/03/24 10:31:32;;;;;;;14.55;2.67;;;14.00;99.90;;;;;;5104254;28;20093;-82
2023/03/24 10:33:58;;;;;;;14.07;2.70;;;13.90;99.90;;;;;;5112455;28;20110;-83
2023/03/24 10:36:26;;;;;;;17.13;3.03;;;13.80;99.90;;;;;;5094251;28;20477;-82
2023/03/24 10:38:52;;;;;;;14.77;2.40;;;13.90;99.90;;;;;;5111778;28;20390;-83
2023/03/24 10:41:24;;;;;;;13.30;2.42;;;14.00;99.90;;;;;;5104280;28;20127;-82
2023/03/24 10:43:51;;;;;;;11.38;2.30;;;14.10;99.90;;;;;;5110991;28;20043;-82
2023/03/24 10:46:30;;;;;;;14.32;2.55;;;14.00;99.90;;;;;;5111073;28;20399;-83
2023/03/24 10:49:18;;;;;;;15.35;3.15;;;14.20;99.90;;;;;;5080020;28;20038;-82
2023/03/24 10:51:50;;;;;;;11.70;2.28;;;14.30;99.90;;;;;;5094207;28;20044;-83
2023/03/24 10:54:24;;;;;;;14.55;2.97;;;14.30;99.90;;;;;;5106823;28;20031;-84
2023/03/24 10:56:50;;;;;;;12.60;2.42;;;14.00;99.90;;;;;;5086752;28;20642;-84
2023/03/24 10:59:27;;;;;;;12.95;2.53;;;13.90;99.90;;;;;;5110546;28;20032;-86
2023/03/24 11:02:19;;;;;;;9.52;2.80;;;13.90;99.90;;;;;;5137094;27;20367;-86
2023/03/24 11:05:10;;;;;;;13.80;2.42;;;13.90;99.90;;;;;;5108564;28;20045;-85
2023/03/24 11:07:39;;;;;;;15.07;2.80;;;13.90;99.90;;;;;;5087257;28;20589;-85
2023/03/24 11:10:07;;;;;;;15.20;2.75;;;14.10;99.90;;;;;;5092372;28;20028;-86
2023/03/24 11:12:39;;;;;;;12.98;2.63;;;14.20;99.90;;;;;;5108499;28;20083;-84
2023/03/24 11:15:20;;;;;;;11.10;2.45;;;13.90;99.90;;;;;;5105263;28;20050;-85
2023/03/24 11:17:52;;;;;;;14.13;3.35;;;13.80;99.90;;;;;;5102422;28;20027;-85
2023/03/24 11:20:23;;;;;;;9.32;2.13;;;13.60;99.90;;;;;;5107059;28;20040;-85
2023/03/24 11:23:31;;;;;;;11.18;2.85;;;13.50;99.90;;;;;;5093279;28;20062;-85
2023/03/24 11:26:11;;;;;;;12.25;2.70;;;13.70;99.90;;;;;;5090925;28;20441;-85
2023/03/24 11:28:54;;;;;;;13.68;2.70;;;14.10;99.90;;;;;;5138581;27;20079;-85
2023/03/24 11:31:29;;;;;;;11.07;2.58;;;14.30;99.90;;;;;;5107936;28;20092;-85
2023/03/24 11:34:02;;;;;;;14.32;2.17;;;14.30;99.90;;;;;;5102685;28;20035;-85
2023/03/24 11:36:34;;;;;;;14.77;3.08;;;14.30;99.90;;;;;;5103628;28;20141;-85
2023/03/24 11:39:21;;;;;;;11.55;2.78;;;14.50;99.90;;;;;;5111128;28;20089;-84
2023/03/24 11:41:59;;;;;;;11.40;2.83;;;14.70;99.90;;;;;;5111566;28;20034;-85
2023/03/24 11:44:25;;;;;;;10.52;2.63;;;14.70;99.90;;;;;;5111435;28;20122;-84
2023/03/24 11:47:15;;;;;;;15.77;2.75;;;14.70;99.90;;;;;;5105738;28;20107;-85
2023/03/24 11:49:47;;;;;;;15.82;2.67;;;14.60;99.90;;;;;;5108212;28;20350;-86
2023/03/24 11:52:25;;;;;;;9.27;2.15;;;14.60;99.90;;;;;;5106839;28;20089;-85
2023/03/24 11:54:50;;;;;;;11.43;2.58;;;14.80;99.90;;;;;;5106377;28;20039;-83
2023/03/24 11:57:28;;;;;;;10.30;2.42;;;14.70;99.90;;;;;;5109048;28;20035;-86
2023/03/24 12:00:01;;;;;;;9.25;2.00;;;14.80;99.90;;;;;;5109119;28;20534;-85
2023/03/24 12:03:03;;;;;;;9.20;2.17;;;15.10;99.90;;;;;;5114060;28;20042;-85
2023/03/24 12:05:40;;;;;;;9.68;2.58;;;15.00;99.90;;;;;;5094391;28;20343;-85
2023/03/24 12:08:24;;;;;;;9.18;2.40;;;14.60;99.90;;;;;;5106179;28;20040;-84
2023/03/24 12:11:13;;;;;;;10.05;2.00;;;14.70;99.90;;;;;;5105742;28;20559;-84
2023/03/24 12:13:41;;;;;;;8.45;2.38;;;14.80;99.90;;;;;;5105249;28;20040;-85
2023/03/24 12:16:25;;;;;;;14.15;2.58;;;15.00;99.90;;;;;;5110917;28;20031;-86
2023/03/24 12:19:10;;;;;;;;;;;15.00;99.90;;;;;;5089001;28;20181;-85
2023/03/24 12:21:48;;;;;;;10.10;2.75;;;15.20;99.90;;;;;;5106976;28;19919;-85
2023/03/24 12:24:29;;;;;;;9.90;2.25;;;15.30;99.90;;;;;;5106039;28;20044;-85
2023/03/24 12:26:58;;;;;;;13.02;2.10;;;15.60;99.90;;;;;;5135815;27;20494;-85
2023/03/24 12:29:50;;;;;;;11.02;1.80;;;15.50;99.90;;;;;;5106879;28;20054;-85
2023/03/24 12:32:34;;;;;;;8.40;2.15;;;15.50;99.90;;;;;;5105745;28;20408;-85
2023/03/24 12:35:20;;;;;;;11.27;2.00;;;15.50;99.90;;;;;;5108401;28;20085;-85
2023/03/24 12:38:29;;;;;;;16.75;2.58;;;15.50;99.90;;;;;;5110944;28;20032;-84
2023/03/24 12:41:22;;;;;;;9.93;1.80;;;15.40;99.90;;;;;;5071238;28;20510;-85
2023/03/24 12:44:07;;;;;;;14.52;3.35;;;15.60;99.90;;;;;;5109805;28;20039;-84
2023/03/24 12:46:51;;;;;;;11.75;2.42;;;15.30;99.90;;;;;;5106527;28;20575;-85
2023/03/24 12:49:53;;;;;;;10.73;2.47;;;15.30;99.90;;;;;;5113858;28;20066;-85
2023/03/24 12:52:21;;;;;;;10.23;2.33;;;15.30;99.90;;;;;;5093311;28;20047;-85
2023/03/24 12:54:50;;;;;;;10.27;2.25;;;15.30;99.90;;;;;;5094479;28;20036;-84
2023/03/24 12:57:19;;;;;;;14.27;2.47;;;14.90;99.90;;;;;;5112896;28;20043;-84
2023/03/24 13:00:00;;;;;;;12.65;2.35;;;14.70;99.90;;;;;;5109779;28;20040;-84
2023/03/24 13:02:29;;;;;;;9.88;2.13;;;14.60;99.90;;;;;;5095922;28;20227;-84
2023/03/24 13:05:03;;;;;;;9.88;2.13;;;14.60;99.90;;;;;;5113692;28;20039;-84
2023/03/24 13:07:32;;;;;;;10.27;2.30;;;14.60;99.90;;;;;;5112295;28;20043;-84
2023/03/24 13:10:19;;;;;;;12.38;1.98;;;14.90;99.90;;;;;;5108529;28;20050;-84